Time,TemperatureF,DewpointF,PressureIn,WindDirection,WindDirectionDegrees,WindSpeedMPH,WindSpeedGustMPH,Humidity,HourlyPrecipIn,Conditions,Clouds,dailyrainin,SoftwareType,DateUTC
2013-02-22 00:03:00,28.8,11.0,29.77,NNW,333,8.0,11.0,47,0.00,CLR,CLR,0.00,WeatherDisplay:10.37,2013-02-22 05:03:00,
2013-02-22 00:08:00,28.8,10.6,29.80,NNW,330,7.0,17.0,46,0.00,CLR,CLR,0.00,WeatherDisplay:10.37,2013-02-22 05:08:00,
2013-02-22 00:18:00,28.9,10.7,29.80,NNW,339,8.0,13.0,46,0.00,CLR,CLR,0.00,WeatherDisplay:10.37,2013-02-22 05:18:00,
2013-02-22 00:25:00,28.9,10.7,29.80,NNW,340,8.0,12.0,46,0.00,CLR,CLR,0.00,WeatherDisplay:10.37,2013-02-22 05:25:00,
2013-02-22 00:28:00,29.1,10.9,29.80,NNW,332,12.0,16.0,46,0.00,CLR,CLR,0.00,WeatherDisplay:10.37,2013-02-22 05:28:00,
2013-02-22 00:38:00,29.3,10.6,29.80,NNW,338,7.0,13.0,45,0.00,CLR,CLR,0.00,WeatherDisplay:10.37,2013-02-22 05:38:00,
2013-02-22 00:48:00,29.1,10.4,29.80,NW,322,7.0,9.0,45,0.00,CLR,CLR,0.00,WeatherDisplay:10.37,2013-02-22 05:48:00,
2013-02-22 00:58:00,29.3,10.6,29.83,NNW,334,9.0,16.0,45,0.00,CLR,CLR,0.00,WeatherDisplay:10.37,2013-02-22 05:58:00,
2013-02-22 01:03:00,29.3,10.1,29.83,NNW,335,8.0,13.0,44,0.00,CLR,CLR,0.00,WeatherDisplay:10.37,2013-02-22 06:03:00,
2013-02-22 01:08:00,29.3,10.1,29.83,NNW,332,8.0,15.0,44,0.00,CLR,CLR,0.00,WeatherDisplay:10.37,2013-02-22 06:08:00,
2013-02-22 01:18:00,29.3,10.1,29.83,NNW,329,6.0,13.0,44,0.00,CLR,CLR,0.00,WeatherDisplay:10.37,2013-02-22 06:18:00,
2013-02-22 01:28:00,29.6,10.4,29.85,NW,326,6.0,9.0,44,0.00,CLR,CLR,0.00,WeatherDisplay:10.37,2013-02-22 06:28:00,
2013-02-22 01:38:00,29.7,10.4,29.85,NW,323,6.0,12.0,44,0.00,CLR,CLR,0.00,WeatherDisplay:10.37,2013-02-22 06:38:00,
2013-02-22 01:48:00,29.7,10.4,29.85,NNW,327,8.0,14.0,44,0.00,CLR,CLR,0.00,WeatherDisplay:10.37,2013-02-22 06:48:00,
2013-02-22 01:58:00,29.7,10.4,29.85,NNW,332,8.0,13.0,44,0.00,CLR,CLR,0.00,WeatherDisplay:10.37,2013-02-22 06:58:00,
2013-02-22 02:03:00,29.7,10.4,29.85,NNW,336,7.0,13.0,44,0.00,CLR,CLR,0.00,WeatherDisplay:10.37,2013-02-22 07:03:00,
2013-02-22 02:08:00,29.5,10.2,29.85,NNW,333,7.0,13.0,44,0.00,CLR,CLR,0.00,WeatherDisplay:10.37,2013-02-22 07:08:00,
2013-02-22 02:18:00,29.1,9.9,29.85,NW,323,7.0,13.0,44,0.00,CLR,CLR,0.00,WeatherDisplay:10.37,2013-02-22 07:18:00,
2013-02-22 02:28:00,28.9,9.7,29.85,NNW,330,6.0,10.0,44,0.00,CLR,CLR,0.00,WeatherDisplay:10.37,2013-02-22 07:28:00,
2013-02-22 02:38:00,28.6,9.4,29.85,NNW,334,6.0,9.0,44,0.00,CLR,CLR,0.00,WeatherDisplay:10.37,2013-02-22 07:38:00,
2013-02-22 02:48:00,28.6,9.4,29.85,NW,314,6.0,8.0,44,0.00,CLR,CLR,0.00,WeatherDisplay:10.37,2013-02-22 07:48:00,
2013-02-22 02:58:00,28.6,9.4,29.88,NNW,329,3.0,10.0,44,0.00,CLR,CLR,0.00,WeatherDisplay:10.37,2013-02-22 07:58:00,
2013-02-22 03:03:00,28.4,9.2,29.88,NNW,333,6.0,10.0,44,0.00,CLR,CLR,0.00,WeatherDisplay:10.37,2013-02-22 08:03:00,
2013-02-22 03:08:00,28.2,9.1,29.85,NW,322,2.0,10.0,44,0.00,CLR,CLR,0.00,WeatherDisplay:10.37,2013-02-22 08:08:00,
2013-02-22 03:18:00,28.2,9.6,29.85,NW,317,6.0,9.0,45,0.00,CLR,CLR,0.00,WeatherDisplay:10.37,2013-02-22 08:18:00,
2013-02-22 03:28:00,28.2,9.1,29.88,NW,324,8.0,15.0,44,0.00,CLR,CLR,0.00,WeatherDisplay:10.37,2013-02-22 08:28:00,
2013-02-22 03:38:00,28.4,9.2,29.88,NW,316,7.0,13.0,44,0.00,CLR,CLR,0.00,WeatherDisplay:10.37,2013-02-22 08:38:00,
2013-02-22 03:48:00,28.2,9.1,29.88,NW,323,5.0,8.0,44,0.00,CLR,CLR,0.00,WeatherDisplay:10.37,2013-02-22 08:48:00,
2013-02-22 03:58:00,28.0,8.9,29.88,NNW,327,5.0,9.0,44,0.00,CLR,CLR,0.00,WeatherDisplay:10.37,2013-02-22 08:58:00,
2013-02-22 04:03:00,28.0,8.9,29.88,NW,322,8.0,13.0,44,0.00,CLR,CLR,0.00,WeatherDisplay:10.37,2013-02-22 09:03:00,
2013-02-22 04:08:00,28.2,8.6,29.88,NNW,335,6.0,13.0,43,0.00,CLR,CLR,0.00,WeatherDisplay:10.37,2013-02-22 09:08:00,
2013-02-22 04:18:00,28.0,8.4,29.88,North,352,6.0,9.0,43,0.00,CLR,CLR,0.00,WeatherDisplay:10.37,2013-02-22 09:18:00,
2013-02-22 04:28:00,27.9,8.2,29.88,NNW,348,5.0,8.0,43,0.00,CLR,CLR,0.00,WeatherDisplay:10.37,2013-02-22 09:28:00,
2013-02-22 04:38:00,27.9,8.2,29.88,NNW,337,6.0,6.0,43,0.00,CLR,CLR,0.00,WeatherDisplay:10.37,2013-02-22 09:38:00,
2013-02-22 04:48:00,27.7,8.1,29.88,NNW,338,3.0,8.0,43,0.00,CLR,CLR,0.00,WeatherDisplay:10.37,2013-02-22 09:48:00,
2013-02-22 04:58:00,27.5,7.9,29.88,NNW,336,5.0,9.0,43,0.00,CLR,CLR,0.00,WeatherDisplay:10.37,2013-02-22 09:58:00,
2013-02-22 05:03:00,27.5,7.9,29.88,NNW,340,5.0,7.0,43,0.00,CLR,CLR,0.00,WeatherDisplay:10.37,2013-02-22 10:03:00,
2013-02-22 05:08:00,27.5,7.9,29.91,NNW,347,3.0,6.0,43,0.00,CLR,CLR,0.00,WeatherDisplay:10.37,2013-02-22 10:08:00,
2013-02-22 05:18:00,27.3,7.7,29.91,North,353,5.0,6.0,43,0.00,CLR,CLR,0.00,WeatherDisplay:10.37,2013-02-22 10:18:00,
2013-02-22 05:23:00,27.3,7.7,29.91,NNW,345,5.0,8.0,43,0.00,CLR,CLR,0.00,WeatherDisplay:10.37,2013-02-22 10:23:00,
2013-02-22 05:28:00,27.1,7.6,29.91,NNW,335,5.0,8.0,43,0.00,CLR,CLR,0.00,WeatherDisplay:10.37,2013-02-22 10:28:00,
2013-02-22 05:38:00,27.0,6.9,29.91,NNW,327,6.0,8.0,42,0.00,CLR,CLR,0.00,WeatherDisplay:10.37,2013-02-22 10:38:00,
2013-02-22 05:43:00,27.0,6.9,29.91,NNW,328,3.0,8.0,42,0.00,CLR,CLR,0.00,WeatherDisplay:10.37,2013-02-22 10:43:00,
2013-02-22 05:48:00,27.0,6.9,29.91,North,354,3.0,6.0,42,0.00,CLR,CLR,0.00,WeatherDisplay:10.37,2013-02-22 10:48:00,
2013-02-22 05:58:00,26.6,6.6,29.91,North,357,2.0,6.0,42,0.00,CLR,CLR,0.00,WeatherDisplay:10.37,2013-02-22 10:58:00,
2013-02-22 06:03:00,26.5,6.4,29.91,NNW,348,3.0,4.0,42,0.00,CLR,CLR,0.00,WeatherDisplay:10.37,2013-02-22 11:03:00,
2013-02-22 06:08:00,26.4,6.4,29.94,NNW,346,1.0,6.0,42,0.00,CLR,CLR,0.00,WeatherDisplay:10.37,2013-02-22 11:08:00,
2013-02-22 06:18:00,26.1,6.1,29.94,North,350,2.0,4.0,42,0.00,CLR,CLR,0.00,WeatherDisplay:10.37,2013-02-22 11:18:00,
2013-02-22 06:28:00,25.7,6.3,29.94,NW,324,3.0,4.0,43,0.00,CLR,CLR,0.00,WeatherDisplay:10.37,2013-02-22 11:28:00,
2013-02-22 06:38:00,25.5,6.1,29.94,North,360,3.0,6.0,43,0.00,CLR,CLR,0.00,WeatherDisplay:10.37,2013-02-22 11:38:00,
2013-02-22 06:48:00,25.5,6.1,29.94,NNW,346,5.0,6.0,43,0.00,CLR,CLR,0.00,WeatherDisplay:10.37,2013-02-22 11:48:00,
2013-02-22 06:58:00,25.7,6.8,29.94,NW,324,3.0,6.0,44,0.00,CLR,CLR,0.00,WeatherDisplay:10.37,2013-02-22 11:58:00,
2013-02-22 07:03:00,25.9,6.9,29.94,NNW,330,3.0,6.0,44,0.00,CLR,CLR,0.00,WeatherDisplay:10.37,2013-02-22 12:03:00,
2013-02-22 07:08:00,26.1,6.6,29.94,North,349,3.0,6.0,43,0.00,CLR,CLR,0.00,WeatherDisplay:10.37,2013-02-22 12:08:00,
2013-02-22 07:18:00,26.2,6.7,29.94,NNW,335,3.0,5.0,43,0.00,CLR,CLR,0.00,WeatherDisplay:10.37,2013-02-22 12:18:00,
2013-02-22 07:28:00,26.6,7.1,29.97,North,355,3.0,6.0,43,0.00,CLR,CLR,0.00,WeatherDisplay:10.37,2013-02-22 12:28:00,
2013-02-22 07:38:00,27.0,7.4,29.97,NNW,344,6.0,6.0,43,0.00,CLR,CLR,0.00,WeatherDisplay:10.37,2013-02-22 12:38:00,
2013-02-22 07:48:00,27.5,7.4,29.97,NNW,344,6.0,8.0,42,0.00,CLR,CLR,0.00,WeatherDisplay:10.37,2013-02-22 12:48:00,
2013-02-22 07:58:00,27.9,7.8,30.00,North,354,3.0,6.0,42,0.00,CLR,CLR,0.00,WeatherDisplay:10.37,2013-02-22 12:58:00,
2013-02-22 08:08:00,28.6,7.8,30.00,NNW,342,6.0,9.0,41,0.00,CLR,CLR,0.00,WeatherDisplay:10.37,2013-02-22 13:08:00,
2013-02-22 08:18:00,28.9,8.1,30.00,NNW,331,6.0,8.0,41,0.00,CLR,CLR,0.00,WeatherDisplay:10.37,2013-02-22 13:18:00,
2013-02-22 08:28:00,29.3,8.5,30.00,NNW,345,3.0,8.0,41,0.00,CLR,CLR,0.00,WeatherDisplay:10.37,2013-02-22 13:28:00,
2013-02-22 08:38:00,29.7,8.8,30.00,NNW,329,8.0,10.0,41,0.00,CLR,CLR,0.00,WeatherDisplay:10.37,2013-02-22 13:38:00,
2013-02-22 08:48:00,29.8,9.0,30.00,NNW,335,5.0,9.0,41,0.00,CLR,CLR,0.00,WeatherDisplay:10.37,2013-02-22 13:48:00,
2013-02-22 08:58:00,30.2,9.3,30.00,North,3,6.0,9.0,41,0.00,CLR,CLR,0.00,WeatherDisplay:10.37,2013-02-22 13:58:00,
2013-02-22 09:03:00,30.2,8.7,30.00,North,356,8.0,13.0,40,0.00,CLR,CLR,0.00,WeatherDisplay:10.37,2013-02-22 14:03:00,
2013-02-22 09:08:00,30.4,8.9,30.03,North,349,7.0,13.0,40,0.00,CLR,CLR,0.00,WeatherDisplay:10.37,2013-02-22 14:08:00,
2013-02-22 09:18:00,30.6,9.1,30.03,NNW,339,7.0,13.0,40,0.00,CLR,CLR,0.00,WeatherDisplay:10.37,2013-02-22 14:18:00,
2013-02-22 09:28:00,31.1,9.5,30.00,NNW,336,6.0,13.0,40,0.00,CLR,CLR,0.00,WeatherDisplay:10.37,2013-02-22 14:28:00,
2013-02-22 09:38:00,31.3,9.2,30.03,NNE,12,5.0,8.0,39,0.00,CLR,CLR,0.00,WeatherDisplay:10.37,2013-02-22 14:38:00,
2013-02-22 09:48:00,31.6,8.9,30.03,NNW,347,7.0,9.0,38,0.00,CLR,CLR,0.00,WeatherDisplay:10.37,2013-02-22 14:48:00,
2013-02-22 09:58:00,31.8,8.5,30.00,NNW,333,7.0,12.0,37,0.00,CLR,CLR,0.00,WeatherDisplay:10.37,2013-02-22 14:58:00,
2013-02-22 10:03:00,32.0,8.6,30.00,NNW,333,9.0,12.0,37,0.00,CLR,CLR,0.00,WeatherDisplay:10.37,2013-02-22 15:03:00,
2013-02-22 10:08:00,32.0,8.6,30.00,NNW,332,8.0,12.0,37,0.00,CLR,CLR,0.00,WeatherDisplay:10.37,2013-02-22 15:08:00,
2013-02-22 10:18:00,32.2,8.2,30.00,NNW,343,6.0,10.0,36,0.00,CLR,CLR,0.00,WeatherDisplay:10.37,2013-02-22 15:18:00,
2013-02-22 10:28:00,32.2,8.2,30.03,North,8,6.0,8.0,36,0.00,CLR,CLR,0.00,WeatherDisplay:10.37,2013-02-22 15:28:00,
2013-02-22 10:38:00,32.5,8.5,30.00,North,4,6.0,11.0,36,0.00,CLR,CLR,0.00,WeatherDisplay:10.37,2013-02-22 15:38:00,
2013-02-22 10:48:00,32.7,8.0,30.00,North,350,5.0,12.0,35,0.00,CLR,CLR,0.00,WeatherDisplay:10.37,2013-02-22 15:48:00,
2013-02-22 10:57:00,33.1,7.7,30.00,North,356,7.0,11.0,34,0.00,CLR,CLR,0.00,WeatherDisplay:10.37,2013-02-22 15:57:00,
2013-02-22 11:02:00,33.1,7.7,30.00,North,0,7.0,10.0,34,0.00,CLR,CLR,0.00,WeatherDisplay:10.37,2013-02-22 16:02:00,
2013-02-22 11:08:00,33.3,7.9,30.00,NNW,347,9.0,14.0,34,0.00,CLR,CLR,0.00,WeatherDisplay:10.37,2013-02-22 16:08:00,
2013-02-22 11:18:00,33.3,7.9,30.00,North,1,7.0,13.0,34,0.00,CLR,CLR,0.00,WeatherDisplay:10.37,2013-02-22 16:18:00,
2013-02-22 11:27:00,33.6,8.2,30.00,North,358,5.0,8.0,34,0.00,CLR,CLR,0.00,WeatherDisplay:10.37,2013-02-22 16:27:00,
2013-02-22 11:37:00,34.0,8.5,30.00,North,359,7.0,11.0,34,0.00,CLR,CLR,0.00,WeatherDisplay:10.37,2013-02-22 16:37:00,
2013-02-22 11:47:00,34.2,8.0,30.00,North,0,6.0,10.0,33,0.00,CLR,CLR,0.00,WeatherDisplay:10.37,2013-02-22 16:47:00,
2013-02-22 11:57:00,34.2,8.7,30.00,NNE,27,3.0,9.0,34,0.00,CLR,CLR,0.00,WeatherDisplay:10.37,2013-02-22 16:57:00,
2013-02-22 12:02:00,34.2,8.0,30.00,NE,34,8.0,12.0,33,0.00,CLR,CLR,0.00,WeatherDisplay:10.37,2013-02-22 17:02:00,
2013-02-22 12:07:00,34.2,8.7,29.97,NE,34,3.0,8.0,34,0.00,CLR,CLR,0.00,WeatherDisplay:10.37,2013-02-22 17:07:00,
2013-02-22 12:17:00,34.3,8.2,29.97,NNE,25,3.0,7.0,33,0.00,CLR,CLR,0.00,WeatherDisplay:10.37,2013-02-22 17:17:00,
2013-02-22 12:27:00,34.6,8.4,29.97,NE,53,3.0,8.0,33,0.00,CLR,CLR,0.00,WeatherDisplay:10.37,2013-02-22 17:27:00,
2013-02-22 12:37:00,34.9,8.6,29.97,North,10,3.0,7.0,33,0.00,CLR,CLR,0.00,WeatherDisplay:10.37,2013-02-22 17:37:00,
2013-02-22 12:47:00,35.1,8.8,29.97,NE,50,2.0,6.0,33,0.00,CLR,CLR,0.00,WeatherDisplay:10.37,2013-02-22 17:47:00,
2013-02-22 12:57:00,35.6,8.6,29.97,NNW,333,7.0,9.0,32,0.00,CLR,CLR,0.00,WeatherDisplay:10.37,2013-02-22 17:57:00,
2013-02-22 13:02:00,35.6,8.6,29.97,NW,325,2.0,6.0,32,0.00,CLR,CLR,0.00,WeatherDisplay:10.37,2013-02-22 18:02:00,
2013-02-22 13:07:00,35.6,8.6,29.97,North,5,6.0,12.0,32,0.00,CLR,CLR,0.00,WeatherDisplay:10.37,2013-02-22 18:07:00,
2013-02-22 13:17:00,35.6,8.6,29.97,North,357,3.0,8.0,32,0.00,CLR,CLR,0.00,WeatherDisplay:10.37,2013-02-22 18:17:00,
2013-02-22 13:27:00,35.4,8.4,29.97,North,5,5.0,8.0,32,0.00,CLR,CLR,0.00,WeatherDisplay:10.37,2013-02-22 18:27:00,
2013-02-22 13:37:00,35.6,8.6,29.97,NNW,341,8.0,12.0,32,0.00,CLR,CLR,0.00,WeatherDisplay:10.37,2013-02-22 18:37:00,
2013-02-22 13:47:00,36.1,8.4,29.97,NNE,25,5.0,6.0,31,0.00,CLR,CLR,0.00,WeatherDisplay:10.37,2013-02-22 18:47:00,
2013-02-22 13:57:00,36.3,8.5,29.97,NNE,19,6.0,8.0,31,0.00,CLR,CLR,0.00,WeatherDisplay:10.37,2013-02-22 18:57:00,
2013-02-22 14:02:00,36.3,8.5,29.97,NNE,22,5.0,10.0,31,0.00,CLR,CLR,0.00,WeatherDisplay:10.37,2013-02-22 19:02:00,
2013-02-22 14:07:00,36.3,8.5,29.97,NNE,14,5.0,8.0,31,0.00,CLR,CLR,0.00,WeatherDisplay:10.37,2013-02-22 19:07:00,
2013-02-22 14:17:00,36.7,8.8,29.97,North,3,7.0,9.0,31,0.00,CLR,CLR,0.00,WeatherDisplay:10.37,2013-02-22 19:17:00,
2013-02-22 14:27:00,36.3,8.5,29.97,NNE,21,8.0,11.0,31,0.00,CLR,CLR,0.00,WeatherDisplay:10.37,2013-02-22 19:27:00,
2013-02-22 14:37:00,36.3,8.5,29.97,North,359,5.0,8.0,31,0.00,CLR,CLR,0.00,WeatherDisplay:10.37,2013-02-22 19:37:00,
2013-02-22 14:47:00,36.5,8.7,29.97,North,353,3.0,8.0,31,0.00,CLR,CLR,0.00,WeatherDisplay:10.37,2013-02-22 19:47:00,
2013-02-22 14:57:00,36.8,8.2,29.97,NNW,339,7.0,9.0,30,0.00,CLR,CLR,0.00,WeatherDisplay:10.37,2013-02-22 19:57:00,
2013-02-22 15:02:00,36.7,8.1,29.97,NNW,344,5.0,9.0,30,0.00,CLR,CLR,0.00,WeatherDisplay:10.37,2013-02-22 20:02:00,
2013-02-22 15:07:00,36.7,8.1,29.97,NNW,347,3.0,6.0,30,0.00,CLR,CLR,0.00,WeatherDisplay:10.37,2013-02-22 20:07:00,
2013-02-22 15:17:00,36.3,8.5,29.97,NNE,16,5.0,8.0,31,0.00,CLR,CLR,0.00,WeatherDisplay:10.37,2013-02-22 20:17:00,
2013-02-22 15:27:00,36.0,8.2,29.97,North,3,3.0,5.0,31,0.00,CLR,CLR,0.00,WeatherDisplay:10.37,2013-02-22 20:27:00,
2013-02-22 15:37:00,36.0,8.2,29.94,North,7,3.0,6.0,31,0.00,CLR,CLR,0.00,WeatherDisplay:10.37,2013-02-22 20:37:00,
2013-02-22 15:42:00,35.8,8.0,29.94,NNE,12,5.0,7.0,31,0.00,CLR,CLR,0.00,WeatherDisplay:10.37,2013-02-22 20:42:00,
2013-02-22 15:47:00,35.6,7.9,29.94,NNE,14,3.0,6.0,31,0.00,CLR,CLR,0.00,WeatherDisplay:10.37,2013-02-22 20:47:00,
2013-02-22 15:57:00,35.4,7.7,29.94,NNE,33,3.0,6.0,31,0.00,CLR,CLR,0.00,WeatherDisplay:10.37,2013-02-22 20:57:00,
2013-02-22 16:02:00,35.2,7.6,29.94,NE,35,1.0,4.0,31,0.00,CLR,CLR,0.00,WeatherDisplay:10.37,2013-02-22 21:02:00,
2013-02-22 16:07:00,35.2,7.6,29.97,NE,35,1.0,4.0,31,0.00,CLR,CLR,0.00,WeatherDisplay:10.37,2013-02-22 21:07:00,
2013-02-22 16:17:00,35.2,7.6,29.97,NE,36,2.0,4.0,31,0.00,CLR,CLR,0.00,WeatherDisplay:10.37,2013-02-22 21:17:00,
2013-02-22 16:27:00,35.1,7.4,29.97,ENE,77,3.0,6.0,31,0.00,CLR,CLR,0.00,WeatherDisplay:10.37,2013-02-22 21:27:00,
2013-02-22 16:37:00,34.7,7.8,29.97,ENE,69,1.0,4.0,32,0.00,CLR,CLR,0.00,WeatherDisplay:10.37,2013-02-22 21:37:00,
2013-02-22 16:47:00,34.5,7.6,29.97,ENE,72,0.0,5.0,32,0.00,CLR,CLR,0.00,WeatherDisplay:10.37,2013-02-22 21:47:00,
2013-02-22 16:57:00,34.2,7.3,29.97,ENE,74,2.0,5.0,32,0.00,CLR,CLR,0.00,WeatherDisplay:10.37,2013-02-22 21:57:00,
2013-02-22 17:02:00,34.0,7.2,29.97,ENE,68,1.0,4.0,32,0.00,CLR,CLR,0.00,WeatherDisplay:10.37,2013-02-22 22:02:00,
2013-02-22 17:07:00,33.8,7.0,29.97,ENE,66,0.0,4.0,32,0.00,CLR,CLR,0.00,WeatherDisplay:10.37,2013-02-22 22:07:00,
2013-02-22 17:17:00,33.4,6.7,29.97,ENE,65,0.0,0.0,32,0.00,CLR,CLR,0.00,WeatherDisplay:10.37,2013-02-22 22:17:00,
2013-02-22 17:27:00,32.8,6.8,29.97,ENE,65,0.0,0.0,33,0.00,CLR,CLR,0.00,WeatherDisplay:10.37,2013-02-22 22:27:00,
2013-02-22 17:37:00,32.0,6.1,29.97,ENE,65,0.0,0.0,33,0.00,CLR,CLR,0.00,WeatherDisplay:10.37,2013-02-22 22:37:00,
2013-02-22 17:47:00,31.3,5.5,29.97,NE,38,1.0,4.0,33,0.00,CLR,CLR,0.00,WeatherDisplay:10.37,2013-02-22 22:47:00,
2013-02-22 17:57:00,31.3,6.1,29.97,NNE,32,2.0,4.0,34,0.00,CLR,CLR,0.00,WeatherDisplay:10.37,2013-02-22 22:57:00,
2013-02-22 18:02:00,31.3,6.8,29.97,NNE,29,0.0,4.0,35,0.00,CLR,CLR,0.00,WeatherDisplay:10.37,2013-02-22 23:02:00,
2013-02-22 18:07:00,31.3,6.8,29.97,NNE,26,2.0,5.0,35,0.00,CLR,CLR,0.00,WeatherDisplay:10.37,2013-02-22 23:07:00,
2013-02-22 18:13:00,31.2,6.7,29.97,NNE,19,1.0,3.0,35,0.00,CLR,CLR,0.00,WeatherDisplay:10.37,2013-02-22 23:13:00,
2013-02-22 18:18:00,31.1,7.2,29.97,NNE,17,1.0,3.0,36,0.00,CLR,CLR,0.00,WeatherDisplay:10.37,2013-02-22 23:18:00,
2013-02-22 18:28:00,30.9,7.1,29.97,NNE,18,2.0,4.0,36,0.00,CLR,CLR,0.00,WeatherDisplay:10.37,2013-02-22 23:28:00,
2013-02-22 18:38:00,30.7,7.5,29.97,NNE,23,0.0,2.0,37,0.00,CLR,CLR,0.00,WeatherDisplay:10.37,2013-02-22 23:38:00,
2013-02-22 18:48:00,30.4,7.2,29.97,NNE,30,0.0,3.0,37,0.00,CLR,CLR,0.00,WeatherDisplay:10.37,2013-02-22 23:48:00,
2013-02-22 18:58:00,29.8,7.3,29.97,NNE,29,0.0,0.0,38,0.00,CLR,CLR,0.00,WeatherDisplay:10.37,2013-02-22 23:58:00,
2013-02-22 19:03:00,29.4,6.8,29.97,NNE,23,0.0,2.0,38,0.00,CLR,CLR,0.00,WeatherDisplay:10.37,2013-02-23 00:03:00,
2013-02-22 19:08:00,28.8,6.3,29.97,NNE,18,0.0,0.0,38,0.00,CLR,CLR,0.00,WeatherDisplay:10.37,2013-02-23 00:08:00,
2013-02-22 19:18:00,28.0,6.7,29.97,NE,34,0.0,0.0,40,0.00,CLR,CLR,0.00,WeatherDisplay:10.37,2013-02-23 00:18:00,
2013-02-22 19:28:00,27.1,6.0,29.97,ESE,115,0.0,0.0,40,0.00,CLR,CLR,0.00,WeatherDisplay:10.37,2013-02-23 00:28:00,
2013-02-22 19:38:00,26.5,6.0,29.97,SSE,148,0.0,0.0,41,0.00,CLR,CLR,0.00,WeatherDisplay:10.37,2013-02-23 00:38:00,
2013-02-22 19:48:00,26.0,5.4,29.97,SSE,148,0.0,0.0,41,0.00,CLR,CLR,0.00,WeatherDisplay:10.37,2013-02-23 00:48:00,
2013-02-22 19:58:00,25.3,4.9,29.97,SSE,148,0.0,0.0,41,0.00,CLR,CLR,0.00,WeatherDisplay:10.37,2013-02-23 00:58:00,
2013-02-22 20:03:00,25.2,4.7,29.97,SSE,148,0.0,0.0,41,0.00,CLR,CLR,0.00,WeatherDisplay:10.37,2013-02-23 01:03:00,
2013-02-22 20:08:00,25.0,4.6,29.97,SSE,148,0.0,0.0,41,0.00,CLR,CLR,0.00,WeatherDisplay:10.37,2013-02-23 01:08:00,
2013-02-22 20:18:00,24.6,4.2,29.97,SSE,148,0.0,0.0,41,0.00,CLR,CLR,0.00,WeatherDisplay:10.37,2013-02-23 01:18:00,
2013-02-22 20:28:00,24.4,4.6,29.97,SSE,148,0.0,0.0,42,0.00,CLR,CLR,0.00,WeatherDisplay:10.37,2013-02-23 01:28:00,
2013-02-22 20:38:00,24.3,4.4,30.00,SSE,148,0.0,0.0,42,0.00,CLR,CLR,0.00,WeatherDisplay:10.37,2013-02-23 01:38:00,
2013-02-22 20:48:00,24.1,4.8,30.00,SSE,148,0.0,0.0,43,0.00,CLR,CLR,0.00,WeatherDisplay:10.37,2013-02-23 01:48:00,
2013-02-22 20:58:00,23.9,4.6,30.00,SSE,148,0.0,0.0,43,0.00,CLR,CLR,0.00,WeatherDisplay:10.37,2013-02-23 01:58:00,
2013-02-22 21:03:00,23.7,4.4,30.00,SSE,148,0.0,0.0,43,0.00,CLR,CLR,0.00,WeatherDisplay:10.37,2013-02-23 02:03:00,
2013-02-22 21:08:00,23.7,4.5,30.00,SSE,148,0.0,0.0,43,0.00,CLR,CLR,0.00,WeatherDisplay:10.37,2013-02-23 02:08:00,
2013-02-22 21:18:00,23.5,4.8,30.00,SSE,148,0.0,0.0,44,0.00,CLR,CLR,0.00,WeatherDisplay:10.37,2013-02-23 02:18:00,
2013-02-22 21:28:00,23.5,4.8,30.00,SSE,148,0.0,0.0,44,0.00,CLR,CLR,0.00,WeatherDisplay:10.37,2013-02-23 02:28:00,
2013-02-22 21:38:00,23.5,4.8,30.00,SSE,148,0.0,0.0,44,0.00,CLR,CLR,0.00,WeatherDisplay:10.37,2013-02-23 02:38:00,
2013-02-22 21:48:00,23.5,5.3,30.00,SSE,148,0.0,0.0,45,0.00,CLR,CLR,0.00,WeatherDisplay:10.37,2013-02-23 02:48:00,
2013-02-22 21:58:00,23.5,5.3,30.00,SSE,148,0.0,0.0,45,0.00,CLR,CLR,0.00,WeatherDisplay:10.37,2013-02-23 02:58:00,
2013-02-22 22:08:00,23.4,5.1,29.97,SSE,148,0.0,0.0,45,0.00,CLR,CLR,0.00,WeatherDisplay:10.37,2013-02-23 03:08:00,
2013-02-22 22:18:00,23.2,5.4,29.97,ESE,104,0.0,0.0,46,0.00,CLR,CLR,0.00,WeatherDisplay:10.37,2013-02-23 03:18:00,
2013-02-22 22:28:00,23.4,5.6,29.97,ESE,104,0.0,0.0,46,0.00,CLR,CLR,0.00,WeatherDisplay:10.37,2013-02-23 03:28:00,
2013-02-22 22:38:00,23.4,6.1,29.97,ESE,104,0.0,0.0,47,0.00,CLR,CLR,0.00,WeatherDisplay:10.37,2013-02-23 03:38:00,
2013-02-22 22:48:00,23.5,6.2,29.97,ESE,104,0.0,0.0,47,0.00,CLR,CLR,0.00,WeatherDisplay:10.37,2013-02-23 03:48:00,
2013-02-22 22:58:00,23.7,6.9,29.97,ESE,104,0.0,0.0,48,0.00,CLR,CLR,0.00,WeatherDisplay:10.37,2013-02-23 03:58:00,
2013-02-22 23:03:00,23.7,6.9,29.97,ESE,104,0.0,0.0,48,0.00,CLR,CLR,0.00,WeatherDisplay:10.37,2013-02-23 04:03:00,
2013-02-22 23:08:00,23.9,7.0,29.97,ESE,104,0.0,0.0,48,0.00,CLR,CLR,0.00,WeatherDisplay:10.37,2013-02-23 04:08:00,
2013-02-22 23:18:00,24.1,7.7,29.97,ESE,104,0.0,0.0,49,0.00,CLR,CLR,0.00,WeatherDisplay:10.37,2013-02-23 04:18:00,
2013-02-22 23:28:00,24.3,7.8,29.97,ESE,104,0.0,0.0,49,0.00,CLR,CLR,0.00,WeatherDisplay:10.37,2013-02-23 04:28:00,
2013-02-22 23:38:00,24.4,8.4,29.94,ENE,76,0.0,0.0,50,0.00,CLR,CLR,0.00,WeatherDisplay:10.37,2013-02-23 04:38:00,
2013-02-22 23:48:00,24.8,9.2,29.94,ENE,66,0.0,0.0,51,0.00,CLR,CLR,0.00,WeatherDisplay:10.37,2013-02-23 04:48:00,
2013-02-22 23:58:00,25.0,9.4,29.97,ENE,66,0.0,0.0,51,0.00,CLR,CLR,0.00,WeatherDisplay:10.37,2013-02-23 04:58:00,